• Join FlightAware (Why Join?)
  • Login
  • US Flag 
05:40AM EDT


 

Airport Tracker/Info


-or-


 

Live Flight TrackerFlight Track Log ✈ AFR1048 ✈ 21-Apr-2013 ✈ LFPG / CDG - LEBL / BCN

Flight Track Log - Related Links

Times and Time Zones

All times are in EDT time to prevent confusion due to time zone crossing. See the AFR1048 flight status page for this flight to view local times or setup timezone preferences in your user account.

Time Position Orientation Groundspeed Altitude Reporting Facility
EDT Latitude Longitude Course Direction KTS MPH feet Rate Location/Type
11:03AM 47.7521 2.4636 183° South  Level Estimated
11:04AM 47.6779 2.4587 183° South  Level Estimated
11:05AM 47.6038 2.4538 183° South  Level Estimated
11:06AM 47.5296 2.4488 183° South  Level Estimated
11:07AM 47.4554 2.4439 183° South  Level Estimated
11:08AM 47.3813 2.4390 183° South  Level Estimated
11:09AM 47.3071 2.4342 183° South  Level Estimated
11:10AM 47.2330 2.4293 183° South  Level Estimated
11:11AM 47.1588 2.4244 183° South  Level Estimated
11:12AM 47.0846 2.4196 183° South  Level Estimated
11:13AM 47.0105 2.4148 183° South  Level Estimated
11:14AM 46.9363 2.4100 183° South  Level Estimated
11:15AM 46.8622 2.4052 183° South  Level Estimated
11:16AM 46.7880 2.4004 183° South  Level Estimated
11:17AM 46.7138 2.3956 183° South  Level Estimated
11:18AM 46.6397 2.3908 183° South  Level Estimated
11:19AM 46.5655 2.3861 183° South  Level Estimated
11:20AM 46.4914 2.3814 183° South  Level Estimated
11:21AM 46.3950 2.3752 183° South  Level Estimated
11:22AM 46.2985 2.3691 183° South  Level Estimated
11:23AM 46.2021 2.3630 183° South  Level Estimated
11:24AM 46.1057 2.3570 182° South  Level Estimated
11:25AM 46.0093 2.3509 182° South  Level Estimated
11:26AM 45.9129 2.3449 182° South  Level Estimated
11:27AM 45.8165 2.3389 182° South  Level Estimated
11:28AM 45.7201 2.3329 182° South  Level Estimated
11:29AM 45.6237 2.3269 182° South  Level Estimated
11:30AM 45.5273 2.3210 182° South  Level Estimated
11:31AM 45.4308 2.3151 182° South  Level Estimated
11:32AM 45.3344 2.3092 182° South  Level Estimated
11:33AM 45.2380 2.3033 182° South  Level Estimated
11:34AM 45.1416 2.2974 182° South  Level Estimated
11:35AM 45.0452 2.2916 182° South  Level Estimated
11:36AM 44.9487 2.2858 182° South  Level Estimated
11:37AM 44.8523 2.2800 182° South  Level Estimated
11:38AM 44.7559 2.2742 182° South  Level Estimated
11:39AM 44.6595 2.2684 182° South  Level Estimated
11:40AM 44.5631 2.2627 182° South  Level Estimated
11:41AM 44.4666 2.2569 182° South  Level Estimated
11:42AM 44.3702 2.2512 182° South  Level Estimated
11:43AM 44.2738 2.2455 182° South  Level Estimated
11:44AM 44.1774 2.2399 182° South  Level Estimated
11:45AM 44.0810 2.2342 182° South  Level Estimated
11:46AM 43.9845 2.2286 182° South  Level Estimated
11:47AM 43.8881 2.2229 182° South  Level Estimated
11:48AM 43.7917 2.2174 182° South  Level Estimated
11:49AM 43.6953 2.2118 182° South  Level Estimated
11:50AM 43.5989 2.2062 182° South  Level Estimated
11:51AM 43.5024 2.2007 182° South  Level Estimated
11:52AM 43.4060 2.1951 182° South  Level Estimated
11:53AM 43.3096 2.1896 182° South  Level Estimated
11:54AM 43.2132 2.1841 182° South  Level Estimated
11:55AM 43.1168 2.1787 182° South  Level Estimated
11:56AM 43.0203 2.1732 182° South  Level Estimated
11:57AM 42.9239 2.1678 182° South  Level Estimated
11:58AM 42.8275 2.1623 182° South  Level Estimated
11:59AM 42.7311 2.1569 182° South  Level Estimated
12:00PM 42.6347 2.1516 182° South  Level Estimated
12:01PM 42.5382 2.1462 182° South  Level Estimated
12:02PM 42.4418 2.1408 182° South  Level Estimated
12:03PM 42.3454 2.1355 182° South  Level Estimated
12:04PM 42.2490 2.1302 182° South  Level Estimated
12:05PM 42.1526 2.1249 182° South  Level Estimated
12:06PM 42.0561 2.1196 182° South  Level Estimated
12:07PM 41.9597 2.1143 182° South  Level Estimated
12:08PM 41.8633 2.1090 182° South  Level Estimated
12:09PM 41.7668 2.1038 182° South  Level Estimated
12:10PM 41.6704 2.0986 182° South  Level Estimated
12:11PM 41.5740 2.0933 182° South  Level Estimated
12:12PM 41.4776 2.0882 182° South  Level Estimated
12:13PM 41.3811 2.0830 182° South  Level Estimated
12:14PM 41.2971 2.0785 182° South  Level Estimated
12:15PM 41.2971 2.0785 124° Southeast  Level Estimated
12:16PM 41.2971 2.0785 124° Southeast  Level Estimated
12:17PM 41.2971 2.0785 124° Southeast  Level Estimated
12:18PM 41.2971 2.0785 124° Southeast  Level Estimated
12:19PM 41.2971 2.0785 124° Southeast  Level Estimated
12:20PM 41.2971 2.0785 124° Southeast  Level Estimated
12:21PM 41.2971 2.0785 124° Southeast  Level Estimated